Time;durP1;ratioP1;P1;durP2;ratioP2;P2;SDS_P1;SDS_P2;PMS_P1;PMS_P2;Temp;Humidity;BMP_temperature;BMP_pressure;BME280_temperature;BME280_humidity;BME280_pressure;Samples;Min_cycle;Max_cycle;Signal;HPM_P1;HPM_P2
2024/03/01 00:01:11;;;;;;;;;0.00;0.00;;;;;11.34;100.00;100333.34;6293271;22;53930;-81
2024/03/01 00:03:37;;;;;;;;;0.00;0.00;;;;;11.37;100.00;100334.06;6290872;22;54099;-82
2024/03/01 00:06:03;;;;;;;;;0.00;0.00;;;;;11.30;100.00;100344.78;6293603;22;28313;-82
2024/03/01 00:08:28;;;;;;;;;0.00;0.00;;;;;11.35;100.00;100341.09;6294105;22;28402;-82
2024/03/01 00:10:54;;;;;;;;;0.00;0.00;;;;;11.30;100.00;100353.44;6264982;22;58071;-82
2024/03/01 00:13:20;;;;;;;;;0.00;0.00;;;;;11.30;100.00;100342.19;6267114;22;28405;-82
2024/03/01 00:15:45;;;;;;;;;0.00;0.00;;;;;11.32;100.00;100366.44;6293935;22;28268;-82
2024/03/01 00:18:11;;;;;;;;;0.00;0.00;;;;;11.39;100.00;100368.75;6265877;22;28629;-82
2024/03/01 00:20:36;;;;;;;;;0.00;0.00;;;;;11.34;100.00;100373.28;6292938;22;52751;-81
2024/03/01 00:23:01;;;;;;;;;0.00;0.00;;;;;11.30;100.00;100365.66;6294004;22;28314;-82
2024/03/01 00:25:27;;;;;;;;;0.00;0.00;;;;;11.30;100.00;100368.25;6293461;22;28342;-82
2024/03/01 00:27:52;;;;;;;;;0.00;0.00;;;;;11.21;100.00;100375.47;6266324;22;28345;-82
2024/03/01 00:30:18;;;;;;;;;0.00;0.00;;;;;11.30;100.00;100368.25;6265578;22;54111;-82
2024/03/01 00:32:44;;;;;;;;;0.00;0.00;;;;;11.23;100.00;100372.81;6291454;22;28379;-82
2024/03/01 00:35:09;;;;;;;;;0.00;0.00;;;;;11.30;100.00;100363.03;6293518;22;28301;-82
2024/03/01 00:37:35;;;;;;;;;0.00;0.00;;;;;11.17;100.00;100373.91;6294093;22;28259;-82
2024/03/01 00:40:00;;;;;;;;;0.00;0.00;;;;;11.10;100.00;100379.41;6292389;22;55028;-83
2024/03/01 00:42:25;;;;;;;;;0.00;0.00;;;;;11.11;100.00;100381.13;6292823;22;34153;-82
2024/03/01 00:44:51;;;;;;;;;0.00;0.00;;;;;11.06;100.00;100388.25;6293382;22;28396;-81
2024/03/01 00:47:16;;;;;;;;;0.00;0.00;;;;;11.02;100.00;100388.34;6266310;22;28500;-82
2024/03/01 00:49:41;;;;;;;;;0.00;0.00;;;;;11.00;100.00;100382.34;6293429;22;29048;-82
2024/03/01 00:52:07;;;;;;;;;0.00;0.00;;;;;10.95;100.00;100389.47;6291774;22;28785;-82
2024/03/01 00:54:32;;;;;;;;;0.00;0.00;;;;;10.85;100.00;100383.75;6292526;22;44194;-82
2024/03/01 00:56:57;;;;;;;;;0.00;0.00;;;;;10.84;100.00;100394.22;6266607;22;28351;-82
2024/03/01 00:59:23;;;;;;;;;0.00;0.00;;;;;10.77;100.00;100393.59;6264850;22;49504;-82
2024/03/01 01:01:49;;;;;;;;;0.00;0.00;;;;;10.75;100.00;100386.72;6240354;22;28386;-82
2024/03/01 01:04:14;;;;;;;;;0.00;0.00;;;;;10.74;100.00;100372.88;6293841;22;28379;-82
2024/03/01 01:06:40;;;;;;;;;0.00;0.00;;;;;10.73;100.00;100386.78;6293297;22;28601;-82
2024/03/01 01:09:05;;;;;;;;;0.00;0.00;;;;;10.69;100.00;100386.94;6265656;22;29882;-83
2024/03/01 01:11:30;;;;;;;;;0.00;0.00;;;;;10.70;100.00;100380.81;6292404;22;41527;-82
2024/03/01 01:13:56;;;;;;;;;0.00;0.00;;;;;10.65;100.00;100383.59;6293265;22;28253;-82
2024/03/01 01:16:22;;;;;;;;;0.00;0.00;;;;;10.65;100.00;100394.84;6293139;22;28240;-82
2024/03/01 01:18:47;;;;;;;;;0.00;0.00;;;;;10.64;100.00;100384.50;6293423;22;29130;-81
2024/03/01 01:21:13;;;;;;;;;0.00;0.00;;;;;10.59;100.00;100394.25;6292501;22;47206;-82
2024/03/01 01:23:38;;;;;;;;;0.00;0.00;;;;;10.55;100.00;100393.50;6292701;22;31765;-82
2024/03/01 01:26:04;;;;;;;;;0.00;0.00;;;;;10.52;100.00;100383.16;6293392;22;28495;-82
2024/03/01 01:28:29;;;;;;;;;0.00;0.00;;;;;10.53;100.00;100391.81;6293860;22;28325;-82
2024/03/01 01:30:55;;;;;;;;;0.00;0.00;;;;;10.55;100.00;100397.81;6265312;22;30408;-82
2024/03/01 01:33:20;;;;;;;;;0.00;0.00;;;;;10.60;100.00;100401.97;6293676;22;29144;-81
2024/03/01 01:35:46;;;;;;;;;0.00;0.00;;;;;10.54;100.00;100414.34;6293404;22;35100;-81
2024/03/01 01:38:11;;;;;;;;;0.00;0.00;;;;;10.63;100.00;100406.22;6293207;22;29220;-81
2024/03/01 01:40:37;;;;;;;;;0.00;0.00;;;;;10.67;100.00;100407.81;6266646;22;28424;-81
2024/03/01 01:43:03;;;;;;;;;0.00;0.00;;;;;10.69;100.00;100410.38;6293277;22;28338;-82
2024/03/01 01:45:28;;;;;;;;;0.00;0.00;;;;;10.70;100.00;100414.66;6293798;22;28482;-81
2024/03/01 01:47:55;;;;;;;;;0.00;0.00;;;;;10.70;100.00;100406.84;6292589;22;28347;-82
2024/03/01 01:50:20;;;;;;;;;0.00;0.00;;;;;10.71;100.00;100401.59;6240105;22;28358;-81
2024/03/01 01:52:46;;;;;;;;;0.00;0.00;;;;;10.75;100.00;100412.75;6293533;22;28237;-81
2024/03/01 01:55:12;;;;;;;;;0.00;0.00;;;;;10.77;100.00;100409.22;6265939;22;44148;-81
2024/03/01 01:57:41;;;;;;;;;0.00;0.00;;;;;10.82;100.00;100399.47;6265767;22;42098;-81
2024/03/01 02:00:07;;;;;;;;;0.00;0.00;;;;;10.85;100.00;100398.53;6265174;22;45349;-82
2024/03/01 02:02:33;;;;;;;;;0.00;0.00;;;;;10.87;100.00;100390.66;6292700;22;28301;-81
2024/03/01 02:04:59;;;;;;;;;0.00;0.00;;;;;10.88;100.00;100389.75;6266360;22;28439;-81
2024/03/01 02:07:25;;;;;;;;;0.00;0.00;;;;;10.88;100.00;100371.53;6265418;22;28499;-80
2024/03/01 02:09:51;;;;;;;;;0.00;0.00;;;;;10.80;100.00;100375.25;6265231;22;43127;-82
2024/03/01 02:12:17;;;;;;;;;0.00;0.00;;;;;10.73;100.00;100370.31;6266239;22;28368;-82
2024/03/01 02:14:43;;;;;;;;;0.00;0.00;;;;;10.68;100.00;100367.88;6266149;22;28380;-82
2024/03/01 02:17:09;;;;;;;;;0.00;0.00;;;;;10.63;100.00;100365.44;6293037;22;28380;-81
2024/03/01 02:19:34;;;;;;;;;0.00;0.00;;;;;10.58;100.00;100359.53;6265826;22;28666;-81
2024/03/01 02:22:04;;;;;;;;;0.00;0.00;;;;;10.48;100.00;100358.16;6291627;22;39679;-82
2024/03/01 02:24:30;;;;;;;;;0.00;0.00;;;;;10.42;100.00;100345.38;6292979;22;28380;-82
2024/03/01 02:26:55;;;;;;;;;0.00;0.00;;;;;10.38;100.00;100346.34;6265335;22;47112;-81
2024/03/01 02:29:20;;;;;;;;;0.00;0.00;;;;;10.41;100.00;100335.84;6293202;22;28325;-81
2024/03/01 02:31:46;;;;;;;;;0.00;0.00;;;;;10.36;100.00;100332.56;6291666;22;28369;-80
2024/03/01 02:34:11;;;;;;;;;0.00;0.00;;;;;10.32;100.00;100320.56;6292573;22;50270;-81
2024/03/01 02:36:37;;;;;;;;;0.00;0.00;;;;;10.32;100.00;100317.97;6292015;22;28442;-81
2024/03/01 02:39:02;;;;;;;;;0.00;0.00;;;;;10.32;100.00;100315.34;6291866;22;54415;-80
2024/03/01 02:41:27;;;;;;;;;0.00;0.00;;;;;10.28;100.00;100309.38;6291463;22;28320;-80
2024/03/01 02:43:53;;;;;;;;;0.00;0.00;;;;;10.26;100.00;100309.44;6284012;22;51208;-82
2024/03/01 02:46:18;;;;;;;;;0.00;0.00;;;;;10.29;100.00;100308.50;6292002;22;57637;-81
2024/03/01 02:48:44;;;;;;;;;0.00;0.00;;;;;10.27;100.00;100302.50;6292254;22;53491;-81
2024/03/01 02:51:09;;;;;;;;;0.00;0.00;;;;;10.22;100.00;100305.25;6265094;22;28325;-81
2024/03/01 02:53:34;;;;;;;;;0.00;0.00;;;;;10.26;100.00;100292.97;6289633;22;49621;-81
2024/03/01 02:56:00;;;;;;;;;0.00;0.00;;;;;10.20;100.00;100301.00;6292487;22;46025;-81
2024/03/01 02:58:25;;;;;;;;;0.00;0.00;;;;;10.21;100.00;100292.28;6293405;22;30227;-81
2024/03/01 03:00:50;;;;;;;;;0.00;0.00;;;;;10.22;100.00;100297.44;6293048;22;38913;-82
2024/03/01 03:03:17;;;;;;;;;0.00;0.00;;;;;10.20;100.00;100299.25;6264865;22;54212;-82
2024/03/01 03:05:42;;;;;;;;;0.00;0.00;;;;;10.20;100.00;100293.19;6292367;22;28467;-82
2024/03/01 03:08:07;;;;;;;;;0.00;0.00;;;;;10.13;100.00;100291.72;6289437;22;44591;-80
2024/03/01 03:10:33;;;;;;;;;0.00;0.00;;;;;10.08;100.00;100292.72;6272873;22;45274;-82
2024/03/01 03:13:00;;;;;;;;;0.00;0.00;;;;;10.06;100.00;100298.84;6272731;22;59730;-82
2024/03/01 03:15:26;;;;;;;;;0.00;0.00;;;;;9.96;100.00;100294.88;6273052;22;46202;-82
2024/03/01 03:17:51;;;;;;;;;0.00;0.00;;;;;10.10;100.00;100289.19;6245968;22;45251;-81
2024/03/01 03:20:18;;;;;;;;;0.00;0.00;;;;;10.08;100.00;100295.31;6271388;22;45279;-81
2024/03/01 03:22:47;;;;;;;;;0.00;0.00;;;;;10.10;100.00;100297.00;6273236;22;45401;-81
2024/03/01 03:25:13;;;;;;;;;0.00;0.00;;;;;10.08;100.00;100297.91;6246941;22;45356;-82
2024/03/01 03:27:39;;;;;;;;;0.00;0.00;;;;;10.11;100.00;100296.13;6272457;22;45351;-81
2024/03/01 03:30:07;;;;;;;;;0.00;0.00;;;;;10.06;100.00;100291.91;6273292;22;45216;-81
2024/03/01 03:32:35;;;;;;;;;0.00;0.00;;;;;10.11;100.00;100291.75;6245268;22;45327;-82
2024/03/01 03:35:01;;;;;;;;;0.00;0.00;;;;;10.13;100.00;100292.53;6246025;22;45444;-81
2024/03/01 03:37:26;;;;;;;;;0.00;0.00;;;;;10.12;100.00;100296.03;6271959;22;73312;-80
2024/03/01 03:39:51;;;;;;;;;0.00;0.00;;;;;10.10;100.00;100294.41;6274042;22;45290;-81
2024/03/01 03:42:17;;;;;;;;;0.00;0.00;;;;;10.05;100.00;100299.78;6271978;22;69763;-81
2024/03/01 03:44:42;;;;;;;;;0.00;0.00;;;;;10.00;100.00;100301.66;6272653;22;52437;-81
2024/03/01 03:47:07;;;;;;;;;0.00;0.00;;;;;10.06;100.00;100307.50;6272052;22;66814;-81
2024/03/01 03:49:33;;;;;;;;;0.00;0.00;;;;;10.05;100.00;100316.22;6273009;22;45495;-81
2024/03/01 03:51:59;;;;;;;;;0.00;0.00;;;;;9.99;100.00;100318.16;6273134;22;45456;-81
2024/03/01 03:54:24;;;;;;;;;0.00;0.00;;;;;9.97;100.00;100322.56;6272197;22;71119;-81
2024/03/01 03:56:49;;;;;;;;;0.00;0.00;;;;;10.02;100.00;100321.50;6272060;22;63118;-81
2024/03/01 03:59:15;;;;;;;;;0.00;0.00;;;;;9.97;100.00;100332.97;6271960;22;65383;-81
2024/03/01 04:01:40;;;;;;;;;0.00;0.00;;;;;10.00;100.00;100323.31;6271902;22;65051;-81
2024/03/01 04:04:05;;;;;;;;;0.00;0.00;;;;;9.97;100.00;100314.75;6272014;22;71110;-81
2024/03/01 04:06:30;;;;;;;;;0.00;0.00;;;;;9.96;100.00;100311.31;6272715;22;45304;-81
2024/03/01 04:08:56;;;;;;;;;0.00;0.00;;;;;9.98;100.00;100321.69;6272727;22;50706;-81
2024/03/01 04:11:21;;;;;;;;;0.00;0.00;;;;;9.95;100.00;100321.78;6271663;22;68933;-82
2024/03/01 04:13:47;;;;;;;;;0.00;0.00;;;;;9.94;100.00;100307.94;6245770;22;46186;-81
2024/03/01 04:16:12;;;;;;;;;0.00;0.00;;;;;9.86;100.00;100310.78;6271707;22;45332;-82
2024/03/01 04:18:38;;;;;;;;;1.00;1.00;;;;;9.87;100.00;100303.81;6245866;22;45473;-81
2024/03/01 04:21:07;;;;;;;;;0.00;0.00;;;;;9.85;100.00;100305.63;6273419;22;45370;-82
2024/03/01 04:23:32;;;;;;;;;0.00;0.00;;;;;9.84;100.00;100303.91;6272763;22;46443;-81
2024/03/01 04:25:58;;;;;;;;;0.00;0.00;;;;;9.79;100.00;100308.44;6274100;22;45290;-81
2024/03/01 04:28:27;;;;;;;;;0.00;0.00;;;;;9.75;100.00;100314.59;6246155;22;65837;-82
2024/03/01 04:30:53;;;;;;;;;0.00;0.00;;;;;9.88;100.00;100314.19;6274133;22;45237;-81
2024/03/01 04:33:18;;;;;;;;;0.00;0.00;;;;;9.84;100.00;100319.50;6246877;22;46190;-82
2024/03/01 04:35:43;;;;;;;;;0.00;0.00;;;;;9.83;100.00;100321.28;6246983;22;46863;-81
2024/03/01 04:38:09;;;;;;;;;0.00;0.00;;;;;9.81;100.00;100325.66;6272995;22;63553;-81
2024/03/01 04:40:37;;;;;;;;;0.00;0.00;;;;;9.84;100.00;100316.91;6274063;22;45165;-81
2024/03/01 04:43:06;;;;;;;;;0.00;0.00;;;;;9.77;100.00;100310.22;6246733;22;46258;-81
2024/03/01 04:45:31;;;;;;;;;0.00;0.00;;;;;9.73;100.00;100312.06;6274139;22;45128;-81
2024/03/01 04:47:57;;;;;;;;;0.00;0.00;;;;;9.68;100.00;100322.63;6246175;22;45556;-81
2024/03/01 04:50:22;;;;;;;;;0.00;0.00;;;;;9.67;100.00;100310.50;6273914;22;53067;-81
2024/03/01 04:52:48;;;;;;;;;0.00;0.00;;;;;9.81;100.00;100307.47;6273569;22;46409;-80
2024/03/01 04:55:13;;;;;;;;;0.00;0.00;;;;;9.72;100.00;100305.19;6274376;22;45290;-82
2024/03/01 04:57:39;;;;;;;;;0.00;0.00;;;;;9.76;100.00;100301.56;6273284;22;69030;-82
2024/03/01 05:00:12;;;;;;;;;0.00;0.00;;;;;9.75;100.00;100293.81;6246427;22;47335;-81
2024/03/01 05:02:43;;;;;;;;;0.00;0.00;;;;;9.72;100.00;100288.75;6247397;22;45635;-80
2024/03/01 05:05:10;;;;;;;;;0.00;0.00;;;;;9.65;100.00;100304.50;6274408;22;45267;-82
2024/03/01 05:07:35;;;;;;;;;0.00;0.00;;;;;9.67;100.00;100302.72;6274354;22;45310;-82
2024/03/01 05:10:08;;;;;;;;;0.00;0.00;;;;;9.67;100.00;100292.31;6247224;22;45249;-82
2024/03/01 05:12:34;;;;;;;;;0.00;0.00;;;;;9.68;100.00;100290.59;6271991;22;47142;-82
2024/03/01 05:15:00;;;;;;;;;0.00;0.00;;;;;9.63;100.00;100284.69;6273872;22;45435;-81
2024/03/01 05:17:25;;;;;;;;;0.00;0.00;;;;;9.62;100.00;100283.84;6273140;22;45401;-82
2024/03/01 05:19:50;;;;;;;;;0.00;0.00;;;;;9.63;100.00;100282.09;6272961;22;59975;-82
2024/03/01 05:22:16;;;;;;;;;0.00;0.00;;;;;9.59;100.00;100281.31;6272904;22;58933;-82
2024/03/01 05:24:41;;;;;;;;;0.00;0.00;;;;;9.53;100.00;100276.34;6273661;22;45169;-82
2024/03/01 05:27:13;;;;;;;;;0.00;0.00;;;;;9.57;100.00;100270.13;6273370;22;54911;-82
2024/03/01 05:29:38;;;;;;;;;0.00;0.00;;;;;9.56;100.00;100262.38;6273481;22;45396;-82
2024/03/01 05:32:04;;;;;;;;;0.00;0.00;;;;;9.52;100.00;100259.03;6274379;22;45284;-81
2024/03/01 05:34:30;;;;;;;;;0.00;0.00;;;;;9.55;100.00;100245.13;6272516;22;45208;-82
2024/03/01 05:36:55;;;;;;;;;0.00;0.00;;;;;9.54;100.00;100248.59;6246475;22;45323;-81
2024/03/01 05:39:21;;;;;;;;;0.00;0.00;;;;;9.49;100.00;100251.38;6274107;22;45390;-82
2024/03/01 05:41:46;;;;;;;;;0.00;0.00;;;;;9.46;100.00;100260.09;6271425;22;62024;-82
2024/03/01 05:44:13;;;;;;;;;0.00;0.00;;;;;9.43;100.00;100252.38;6270292;22;74178;-81
2024/03/01 05:46:39;;;;;;;;;0.00;0.00;;;;;9.47;100.00;100242.75;6221226;22;45245;-81
2024/03/01 05:49:05;;;;;;;;;0.00;0.00;;;;;9.42;100.00;100242.06;6273910;22;45432;-81
2024/03/01 05:51:31;;;;;;;;;0.00;0.00;;;;;9.41;100.00;100229.97;6246825;22;45801;-82
2024/03/01 05:53:57;;;;;;;;;0.00;0.00;;;;;9.43;100.00;100223.81;6273645;22;45276;-81
2024/03/01 05:56:24;;;;;;;;;0.00;0.00;;;;;9.45;100.00;100219.44;6273895;22;45285;-81
2024/03/01 05:58:49;;;;;;;;;0.00;0.00;;;;;9.40;100.00;100207.50;6272628;22;45379;-82
2024/03/01 06:01:16;;;;;;;;;0.00;0.00;;;;;9.36;100.00;100198.94;6272698;22;67388;-81
2024/03/01 06:03:42;;;;;;;;;0.00;0.00;;;;;9.37;100.00;100187.66;6246043;22;45219;-81
2024/03/01 06:06:09;;;;;;;;;0.00;0.00;;;;;9.33;100.00;100195.59;6273423;22;45231;-81
2024/03/01 06:08:35;;;;;;;;;0.00;0.00;;;;;9.26;100.00;100194.94;6273580;22;45350;-82
2024/03/01 06:11:00;;;;;;;;;0.00;0.00;;;;;9.41;100.00;100188.41;6273297;22;46631;-82
2024/03/01 06:13:25;;;;;;;;;0.00;0.00;;;;;9.41;100.00;100188.41;6273246;22;45191;-83
2024/03/01 06:15:51;;;;;;;;;0.00;0.00;;;;;9.38;100.00;100186.75;6273101;22;65892;-83
2024/03/01 06:18:17;;;;;;;;;0.00;0.00;;;;;9.23;100.00;100187.22;6246953;22;45240;-82
2024/03/01 06:20:42;;;;;;;;;0.00;0.00;;;;;9.40;100.00;100169.38;6245799;22;45720;-81
2024/03/01 06:23:07;;;;;;;;;0.00;0.00;;;;;9.41;100.00;100165.84;6271961;22;69901;-82
2024/03/01 06:25:33;;;;;;;;;0.00;0.00;;;;;9.43;100.00;100176.19;6273066;22;45230;-82
2024/03/01 06:27:58;;;;;;;;;0.00;0.00;;;;;9.37;100.00;100173.81;6271798;22;69141;-83
2024/03/01 06:30:24;;;;;;;;;0.00;0.00;;;;;9.36;100.00;100175.56;6272962;22;45405;-79
2024/03/01 06:32:49;;;;;;;;;0.00;0.00;;;;;9.40;100.00;100169.38;6273598;22;45460;-82
2024/03/01 06:35:14;;;;;;;;;0.00;0.00;;;;;9.43;100.00;100156.25;6246755;22;45279;-83
2024/03/01 06:37:40;;;;;;;;;0.00;0.00;;;;;9.43;100.00;100153.66;6246584;22;45459;-84
2024/03/01 06:40:09;;;;;;;;;0.00;0.00;;;;;9.44;100.00;100141.53;6272886;22;71420;-84
2024/03/01 06:42:35;;;;;;;;;0.00;0.00;;;;;9.43;100.00;100135.47;6271793;22;45306;-83
2024/03/01 06:45:00;;;;;;;;;6.00;6.00;;;;;9.43;100.00;100138.06;6273757;22;45361;-87
2024/03/01 06:47:30;;;;;;;;;0.00;0.00;;;;;9.42;100.00;100132.97;6246110;22;45472;-85
2024/03/01 06:49:55;;;;;;;;;0.00;0.00;;;;;9.44;100.00;100132.00;6246027;22;47128;-84
2024/03/01 06:52:20;;;;;;;;;0.00;0.00;;;;;9.43;100.00;100134.63;6273651;22;45357;-84
2024/03/01 06:54:46;;;;;;;;;0.00;0.00;;;;;9.47;100.00;100128.44;6246437;22;45339;-83
2024/03/01 06:57:11;;;;;;;;;0.00;0.00;;;;;9.49;100.00;100127.50;6272735;22;45453;-83
2024/03/01 06:59:38;;;;;;;;;0.00;0.00;;;;;9.50;100.00;100130.94;6271918;22;70497;-83
2024/03/01 07:02:04;;;;;;;;;0.00;0.00;;;;;9.57;100.00;100129.81;6245384;22;45358;-85
2024/03/01 07:04:29;;;;;;;;;0.00;0.00;;;;;9.60;100.00;100144.44;6247529;22;45288;-85
2024/03/01 07:06:55;;;;;;;;;0.00;0.00;;;;;9.59;100.00;100130.63;6273716;22;66853;-85
2024/03/01 07:09:21;;;;;;;;;0.00;0.00;;;;;9.66;100.00;100118.28;6272581;22;46508;-79
2024/03/01 07:11:46;;;;;;;;;0.00;0.00;;;;;9.75;100.00;100115.34;6272674;22;45295;-82
2024/03/01 07:14:12;;;;;;;;;0.00;0.00;;;;;9.78;100.00;100112.63;6245194;22;67841;-81
2024/03/01 07:16:37;;;;;;;;;0.00;0.00;;;;;9.84;100.00;100099.44;6246624;22;45333;-81
2024/03/01 07:19:02;;;;;;;;;0.00;0.00;;;;;9.87;100.00;100088.91;6272421;22;64216;-81
2024/03/01 07:21:28;;;;;;;;;0.00;0.00;;;;;9.98;100.00;100093.72;6272980;22;45290;-82
2024/03/01 07:23:53;;;;;;;;;0.00;0.00;;;;;10.13;100.00;100083.66;6219734;22;64623;-83
2024/03/01 07:26:20;;;;;;;;;0.00;0.00;;;;;10.22;100.00;100060.75;6245141;22;66430;-81
2024/03/01 07:28:45;;;;;;;;;4.00;0.00;;;;;10.34;100.00;100064.66;6273361;22;46126;-82
2024/03/01 07:31:10;;;;;;;;;0.00;0.00;;;;;10.47;100.00;100046.81;6244892;22;72429;-81
2024/03/01 07:33:36;;;;;;;;;0.00;0.00;;;;;10.53;100.00;100051.78;6245845;22;45252;-80
2024/03/01 07:36:02;;;;;;;;;0.00;0.00;;;;;10.53;100.00;100041.38;6245819;22;45279;-82
2024/03/01 07:38:27;;;;;;;;;0.00;0.00;;;;;10.61;100.00;100030.66;6245751;22;46445;-82
2024/03/01 07:40:52;;;;;;;;;0.00;0.00;;;;;10.61;100.00;100028.91;6272656;22;45366;-83
2024/03/01 07:43:19;;;;;;;;;0.00;0.00;;;;;10.71;100.00;100024.16;6269361;22;69012;-81
2024/03/01 07:45:44;;;;;;;;;0.00;0.00;;;;;10.75;100.00;100017.91;6271661;22;45184;-82
2024/03/01 07:48:09;;;;;;;;;0.00;0.00;;;;;10.83;100.00;100004.59;6270774;22;45404;-84
2024/03/01 07:50:37;;;;;;;;;0.00;0.00;;;;;10.84;100.00;100003.66;6241965;22;45395;-81
2024/03/01 07:53:02;;;;;;;;;0.00;0.00;;;;;10.93;100.00;99994.63;6241064;22;45353;-82
2024/03/01 07:55:28;;;;;;;;;0.00;0.00;;;;;10.91;100.00;99996.47;6270936;22;45446;-82
2024/03/01 07:57:54;;;;;;;;;0.00;0.00;;;;;11.03;100.00;99988.97;6271114;22;46325;-82
2024/03/01 08:00:20;;;;;;;;;0.00;0.00;;;;;10.97;100.00;99999.63;6266387;22;45719;-83
2024/03/01 08:02:47;;;;;;;;;0.00;0.00;;;;;11.10;100.00;99973.91;6267321;22;45360;-83
2024/03/01 08:05:13;;;;;;;;;0.00;0.00;;;;;11.17;100.00;100004.00;6243944;22;45218;-82
2024/03/01 08:07:38;;;;;;;;;0.00;0.00;;;;;11.24;100.00;99963.75;6269327;22;69904;-82
2024/03/01 08:10:04;;;;;;;;;0.00;0.00;;;;;11.30;100.00;99972.22;6271551;22;45511;-82
2024/03/01 08:12:29;;;;;;;;;0.00;0.00;;;;;11.34;100.00;99972.00;6271907;22;45345;-82
2024/03/01 08:14:54;;;;;;;;;0.00;0.00;;;;;11.34;100.00;99973.75;6272243;22;54845;-83
2024/03/01 08:17:20;;;;;;;;;0.00;0.00;;;;;11.32;100.00;99968.63;6273292;22;46201;-83
2024/03/01 08:19:48;;;;;;;;;0.00;0.00;;;;;11.46;100.00;99959.34;6272501;22;45321;-82
2024/03/01 08:22:17;;;;;;;;;0.00;0.00;;;;;11.51;100.00;99953.00;6244325;22;45445;-82
2024/03/01 08:24:47;;;;;;;;;0.00;0.00;;;;;11.58;100.00;99948.38;6270359;22;45481;-84
2024/03/01 08:27:23;;;;;;;;;0.00;0.00;;;;;11.67;100.00;99952.31;6273491;22;46394;-84
2024/03/01 08:29:48;;;;;;;;;0.00;0.00;;;;;11.74;100.00;99946.75;6246139;22;45333;-82
2024/03/01 08:32:43;;;;;;;;;0.00;0.00;;;;;11.82;100.00;99934.19;6272183;22;45570;-82
2024/03/01 08:35:14;;;;;;;;;0.00;0.00;;;;;11.91;100.00;99939.94;6263710;22;45632;-83
2024/03/01 08:37:40;;;;;;;;;0.00;0.00;;;;;11.95;100.00;99944.09;6272260;22;46196;-83
2024/03/01 08:40:34;;;;;;;;;0.00;0.00;;;;;11.86;100.00;99916.63;6244366;22;45279;-83
2024/03/01 08:43:01;;;;;;;;;0.00;0.00;;;;;11.79;100.00;99923.91;6221701;22;45539;-83
2024/03/01 08:45:45;;;;;;;;;0.00;0.00;;;;;11.86;100.00;99913.19;6245915;22;45371;-83
2024/03/01 08:48:23;;;;;;;;;0.00;0.00;;;;;11.93;100.00;99899.81;6270831;22;46184;-83
2024/03/01 08:50:52;;;;;;;;;0.00;0.00;;;;;11.90;100.00;99894.72;6242646;22;45622;-86
2024/03/01 08:53:54;;;;;;;;;0.00;0.00;;;;;11.88;100.00;99898.31;6269600;22;45763;-85
2024/03/01 08:57:14;;;;;;;;;;;;;;;;;;;;;
2024/03/01 08:59:50;;;;;;;;;0.00;0.00;;;;;11.81;100.00;99901.22;6205725;22;75499;-82
2024/03/01 09:02:48;;;;;;;;;0.00;0.00;;;;;11.90;100.00;99888.69;6207412;22;45332;-81
2024/03/01 09:05:16;;;;;;;;;0.00;0.00;;;;;11.90;100.00;99875.66;6183448;22;45642;-83
2024/03/01 09:07:43;;;;;;;;;0.00;0.00;;;;;11.81;100.00;99890.78;6181742;22;45482;-83
2024/03/01 09:10:24;;;;;;;;;0.00;0.00;;;;;11.84;100.00;99884.56;6157003;22;48221;-82
2024/03/01 09:12:50;;;;;;;;;0.00;0.00;;;;;11.84;100.00;99879.34;6181562;22;45280;-84
2024/03/01 09:15:16;;;;;;;;;0.00;0.00;;;;;11.90;100.00;99870.44;6182321;22;47047;-84
2024/03/01 09:17:42;;;;;;;;;0.00;0.00;;;;;11.97;100.00;99862.22;6156789;22;45261;-82
2024/03/01 09:20:29;;;;;;;;;13.00;12.00;;;;;12.00;100.00;99867.31;6182307;22;47058;-83
2024/03/01 09:22:54;;;;;;;;;0.00;0.00;;;;;12.04;100.00;99854.97;6181650;22;45364;-82
2024/03/01 09:25:41;;;;;;;;;0.00;0.00;;;;;12.14;100.00;99842.31;6206896;22;64957;-83
2024/03/01 09:28:11;;;;;;;;;0.00;0.00;;;;;12.16;100.00;99841.28;6207373;22;45454;-83
2024/03/01 09:30:37;;;;;;;;;0.00;0.00;;;;;11.92;100.00;99832.94;6196382;22;48319;-84
2024/03/01 09:33:03;;;;;;;;;0.00;0.00;;;;;18.49;100.00;99737.50;6244060;22;45311;-84
2024/03/01 09:35:29;;;;;;;;;0.00;0.00;;;;;17.69;100.00;99752.28;6244519;22;45293;-84
2024/03/01 09:37:55;;;;;;;;;1.00;0.00;;;;;17.46;100.00;99721.56;6244863;22;45520;-84
2024/03/01 09:40:57;;;;;;;;;0.00;0.00;;;;;17.42;100.00;99726.22;6270170;22;48045;-87
2024/03/01 09:43:28;;;;;;;;;3.00;0.00;;;;;17.17;100.00;99735.91;6271124;22;45212;-85
2024/03/01 09:45:59;;;;;;;;;0.00;0.00;;;;;16.99;100.00;99774.91;6272680;22;45381;-84
2024/03/01 09:48:52;;;;;;;;;0.00;0.00;;;;;17.05;100.00;99818.31;6271787;22;45334;-83
2024/03/01 09:51:30;;;;;;;;;0.00;0.00;;;;;17.16;100.00;99820.16;6243877;22;46195;-83
2024/03/01 09:54:23;;;;;;;;;0.00;0.00;;;;;16.98;100.00;99820.50;6271019;22;45290;-86
2024/03/01 09:56:57;;;;;;;;;0.00;0.00;;;;;16.70;100.00;99833.88;6267427;22;45322;-81
2024/03/01 09:59:34;;;;;;;;;0.00;0.00;;;;;16.96;100.00;99832.09;6272154;22;45509;-82
2024/03/01 10:02:10;;;;;;;;;0.00;0.00;;;;;17.15;100.00;99808.81;6269123;22;47283;-81
2024/03/01 10:05:09;;;;;;;;;0.00;0.00;;;;;17.18;100.00;99827.00;6244184;22;45649;-82
2024/03/01 10:07:48;;;;;;;;;0.00;0.00;;;;;17.19;100.00;99809.44;6244569;22;45279;-81
2024/03/01 10:10:19;;;;;;;;;0.00;0.00;;;;;17.22;100.00;99815.31;6245497;22;45309;-82
2024/03/01 10:12:52;;;;;;;;;0.00;0.00;;;;;17.32;100.00;99806.75;6272368;22;45385;-81
2024/03/01 10:15:36;;;;;;;;;0.00;0.00;;;;;17.26;100.00;99813.31;6245311;22;45287;-80
2024/03/01 10:18:10;;;;;;;;;1.00;1.00;;;;;17.30;100.00;99816.56;6271593;22;45341;-81
2024/03/01 10:20:55;;;;;;;;;0.00;0.00;;;;;17.18;100.00;99826.16;6272524;22;45367;-80
2024/03/01 10:23:28;;;;;;;;;0.00;0.00;;;;;17.24;100.00;99819.63;6243337;22;46221;-83
2024/03/01 10:26:02;;;;;;;;;0.00;0.00;;;;;17.37;100.00;99812.53;6244483;22;45357;-81
2024/03/01 10:28:49;;;;;;;;;0.00;0.00;;;;;17.37;100.00;99830.94;6270878;22;45635;-82
2024/03/01 10:31:43;;;;;;;;;0.00;0.00;;;;;17.42;100.00;99819.16;6271395;22;45871;-82
2024/03/01 10:34:41;;;;;;;;;2.25;2.25;;;;;17.55;100.00;99823.50;6256327;22;46498;-81
2024/03/01 10:37:35;;;;;;;;;0.00;0.00;;;;;17.45;100.00;99827.75;6272028;22;45448;-81
2024/03/01 10:40:19;;;;;;;;;0.00;0.00;;;;;17.44;100.00;99816.41;6272487;22;45366;-84
2024/03/01 10:42:50;;;;;;;;;0.00;0.00;;;;;17.38;100.00;99816.84;6220919;22;45233;-82
2024/03/01 10:45:20;;;;;;;;;0.00;0.00;;;;;17.31;100.00;99824.34;6248229;22;45433;-81
2024/03/01 10:47:46;;;;;;;;;0.00;0.00;;;;;17.42;100.00;99816.53;6248627;22;45625;-81
2024/03/01 10:50:27;;;;;;;;;0.00;0.00;;;;;17.57;100.00;99808.47;6245812;22;45339;-82
2024/03/01 10:53:01;;;;;;;;;0.00;0.00;;;;;17.71;100.00;99815.34;6245435;22;45331;-83
2024/03/01 10:55:33;;;;;;;;;0.00;0.00;;;;;17.78;100.00;99812.13;6272373;22;47350;-81
2024/03/01 10:58:22;;;;;;;;;0.00;0.00;;;;;17.46;100.00;99834.69;6245458;22;45387;-83
2024/03/01 11:01:01;;;;;;;;;0.00;0.00;;;;;17.82;100.00;99819.81;6245762;22;45290;-84
2024/03/01 11:03:48;;;;;;;;;0.00;0.00;;;;;17.74;100.00;99809.88;6245273;22;45477;-83
2024/03/01 11:06:34;;;;;;;;;0.00;0.00;;;;;17.90;100.00;99822.75;6242069;22;46470;-81
2024/03/01 11:08:59;;;;;;;;;0.00;0.00;;;;;18.06;100.00;99807.50;6244643;22;45335;-81
2024/03/01 11:11:58;;;;;;;;;0.00;0.00;;;;;17.91;100.00;99816.53;6272534;22;45461;-83
2024/03/01 11:14:24;;;;;;;;;0.00;0.00;;;;;18.20;100.00;99814.34;6267522;22;45539;-83
2024/03/01 11:16:51;;;;;;;;;0.00;0.00;;;;;18.62;100.00;99827.84;6272105;22;45361;-86
2024/03/01 11:19:20;;;;;;;;;0.00;0.00;;;;;18.68;100.00;99814.19;6245325;22;57479;-87
2024/03/01 11:21:51;;;;;;;;;0.00;0.00;;;;;19.63;100.00;99797.06;6246624;22;45342;-85
2024/03/01 11:24:34;;;;;;;;;0.00;0.00;;;;;20.04;100.00;99811.31;6245894;22;45459;-86
2024/03/01 11:27:03;;;;;;;;;0.00;0.00;;;;;20.65;100.00;99757.72;6270965;22;46320;-83
2024/03/01 11:29:32;;;;;;;;;0.00;0.00;;;;;20.59;100.00;99769.63;6245761;22;45323;-84
2024/03/01 11:32:06;;;;;;;;;0.00;0.00;;;;;20.13;100.00;99765.63;6243878;22;45400;-83